createdAt,value
2018-12-18T00:00:08.114Z,99.91
2018-12-18T00:01:08.101Z,99.70
2018-12-18T00:02:08.098Z,99.80
2018-12-18T00:03:08.102Z,99.80
2018-12-18T00:04:08.069Z,99.70
2018-12-18T00:05:08.066Z,99.80
2018-12-18T00:06:08.045Z,99.99
2018-12-18T00:07:08.033Z,99.99
2018-12-18T00:08:08.022Z,99.60
2018-12-18T00:09:08.025Z,99.60
2018-12-18T00:10:08.006Z,99.91
2018-12-18T00:11:07.993Z,99.91
2018-12-18T00:12:08.011Z,99.60
2018-12-18T00:13:07.973Z,99.49
2018-12-18T00:14:07.969Z,98.87
2018-12-18T00:15:07.949Z,99.29
2018-12-18T00:16:07.933Z,99.18
2018-12-18T00:17:07.921Z,99.24
2018-12-18T00:18:07.914Z,99.14
2018-12-18T00:19:07.897Z,99.29
2018-12-18T00:20:07.901Z,99.24
2018-12-18T00:21:07.895Z,99.39
2018-12-18T00:22:07.870Z,99.49
2018-12-18T00:23:07.853Z,99.18
2018-12-18T00:24:07.840Z,99.18
2018-12-18T00:25:07.833Z,99.39
2018-12-18T00:26:07.838Z,99.14
2018-12-18T00:27:07.827Z,99.29
2018-12-18T00:28:07.798Z,99.24
2018-12-18T00:29:07.785Z,99.18
2018-12-18T00:30:07.776Z,99.08
2018-12-18T00:31:07.760Z,99.49
2018-12-18T00:32:07.765Z,99.39
2018-12-18T00:33:07.749Z,99.49
2018-12-18T00:34:07.729Z,99.18
2018-12-18T00:35:07.721Z,99.39
2018-12-18T00:36:07.713Z,99.39
2018-12-18T00:37:07.701Z,99.08
2018-12-18T00:38:07.722Z,99.70
2018-12-18T00:39:07.673Z,99.70
2018-12-18T00:40:07.662Z,99.80
2018-12-18T00:41:07.649Z,99.91
2018-12-18T00:42:07.641Z,99.70
2018-12-18T00:43:07.629Z,99.70
2018-12-18T00:44:07.649Z,99.70
2018-12-18T00:45:07.606Z,99.70
2018-12-18T00:46:07.593Z,99.39
2018-12-18T00:47:07.581Z,99.99
2018-12-18T00:48:07.574Z,99.70
2018-12-18T00:49:07.561Z,99.08
2018-12-18T00:50:07.578Z,99.91
2018-12-18T00:51:07.541Z,99.80
2018-12-18T00:52:07.545Z,99.91
2018-12-18T00:53:07.514Z,99.99
2018-12-18T00:54:07.505Z,99.99
2018-12-18T00:55:07.498Z,99.99
2018-12-18T00:56:07.489Z,99.95
2018-12-18T00:57:07.482Z,99.91
2018-12-18T00:58:07.474Z,99.91
2018-12-18T00:59:07.457Z,99.99
2018-12-18T01:00:07.437Z,99.80
2018-12-18T01:01:07.426Z,99.70
2018-12-18T01:02:07.414Z,99.29
2018-12-18T01:03:07.414Z,99.99
2018-12-18T01:04:07.403Z,99.70
2018-12-18T01:05:07.394Z,99.18
2018-12-18T01:06:07.369Z,99.99
2018-12-18T01:07:07.357Z,99.60
2018-12-18T01:08:07.347Z,98.97
2018-12-18T01:09:07.365Z,98.87
2018-12-18T01:10:07.332Z,99.08
2018-12-18T01:11:07.315Z,99.70
2018-12-18T01:12:07.304Z,99.39
2018-12-18T01:13:07.290Z,99.60
2018-12-18T01:14:07.278Z,99.49
2018-12-18T01:15:07.286Z,99.70
2018-12-18T01:16:07.265Z,99.70
2018-12-18T01:17:07.246Z,99.49
2018-12-18T01:18:07.245Z,99.39
2018-12-18T01:19:07.226Z,99.70
2018-12-18T01:20:07.234Z,99.70
2018-12-18T01:21:07.201Z,99.70
2018-12-18T01:22:07.210Z,99.49
2018-12-18T01:23:07.178Z,99.49
2018-12-18T01:24:07.165Z,99.70
2018-12-18T01:25:07.158Z,99.60
2018-12-18T01:26:07.166Z,99.70
2018-12-18T01:27:07.137Z,99.99
2018-12-18T01:28:07.130Z,99.99
2018-12-18T01:29:07.110Z,99.99
2018-12-18T01:30:07.101Z,99.70
2018-12-18T01:31:07.090Z,99.60
2018-12-18T01:32:07.098Z,98.97
2018-12-18T01:33:07.066Z,99.08
2018-12-18T01:34:07.067Z,99.91
2018-12-18T01:35:07.050Z,99.39
2018-12-18T01:36:07.034Z,99.29
2018-12-18T01:37:07.022Z,99.08
2018-12-18T01:38:07.026Z,99.49
2018-12-18T01:39:06.998Z,99.49
2018-12-18T01:40:06.994Z,99.33
2018-12-18T01:41:06.978Z,99.74
2018-12-18T01:42:06.968Z,99.33
2018-12-18T01:43:06.954Z,99.39
2018-12-18T01:44:06.954Z,99.64
2018-12-18T01:45:06.930Z,99.99
2018-12-18T01:46:06.938Z,99.39
2018-12-18T01:47:06.914Z,99.85
2018-12-18T01:48:06.903Z,99.95
2018-12-18T01:49:06.899Z,99.91
2018-12-18T01:50:06.886Z,99.85
2018-12-18T01:51:06.870Z,99.80
2018-12-18T01:52:06.866Z,99.91
2018-12-18T01:53:06.841Z,99.95
2018-12-18T01:54:06.830Z,99.99
2018-12-18T01:55:06.833Z,99.99
2018-12-18T01:56:06.810Z,99.64
2018-12-18T01:57:06.799Z,99.70
2018-12-18T01:58:06.795Z,99.74
2018-12-18T01:59:06.774Z,99.91
2018-12-18T02:00:06.778Z,99.74
2018-12-18T02:01:06.758Z,99.64
2018-12-18T02:02:06.742Z,99.74
2018-12-18T02:03:06.736Z,99.64
2018-12-18T02:04:06.732Z,99.64
2018-12-18T02:05:06.706Z,99.54
2018-12-18T02:06:06.722Z,99.64
2018-12-18T02:07:06.686Z,99.99
2018-12-18T02:08:06.674Z,99.64
2018-12-18T02:09:06.669Z,99.02
2018-12-18T02:10:06.658Z,99.23
2018-12-18T02:11:06.642Z,99.13
2018-12-18T02:12:06.646Z,99.54
2018-12-18T02:13:06.618Z,99.54
2018-12-18T02:14:06.607Z,99.54
2018-12-18T02:15:06.605Z,99.64
2018-12-18T02:16:06.586Z,99.33
2018-12-18T02:17:06.575Z,99.33
2018-12-18T02:18:06.579Z,99.43
2018-12-18T02:19:06.549Z,99.33
2018-12-18T02:20:06.542Z,99.54
2018-12-18T02:21:06.541Z,99.74
2018-12-18T02:22:06.517Z,98.92
2018-12-18T02:23:06.530Z,99.64
2018-12-18T02:24:06.499Z,99.64
2018-12-18T02:25:06.486Z,99.02
2018-12-18T02:26:06.479Z,98.92
2018-12-18T02:27:06.470Z,99.13
2018-12-18T02:28:06.449Z,98.92
2018-12-18T02:29:06.455Z,98.92
2018-12-18T02:30:06.437Z,99.02
2018-12-18T02:31:06.423Z,99.02
2018-12-18T02:32:06.406Z,99.23
2018-12-18T02:33:06.419Z,99.02
2018-12-18T02:34:13.439Z,98.61
2018-12-18T02:35:07.381Z,98.61
2018-12-18T02:36:06.362Z,98.61
2018-12-18T02:37:06.354Z,98.40
2018-12-18T02:38:06.340Z,98.50
2018-12-18T02:39:06.358Z,98.50
2018-12-18T02:40:06.313Z,98.61
2018-12-18T02:41:06.308Z,98.19
2018-12-18T02:42:06.294Z,98.40
2018-12-18T02:43:06.283Z,98.61
2018-12-18T02:44:06.270Z,98.40
2018-12-18T02:45:06.286Z,98.61
2018-12-18T02:46:06.262Z,98.40
2018-12-18T02:47:06.241Z,98.24
2018-12-18T02:48:06.227Z,98.24
2018-12-18T02:49:06.213Z,98.40
2018-12-18T02:50:06.203Z,98.19
2018-12-18T02:51:06.217Z,97.78
2018-12-18T02:52:06.181Z,97.83
2018-12-18T02:53:06.171Z,97.88
2018-12-18T02:54:06.159Z,97.88
2018-12-18T02:55:06.146Z,97.72
2018-12-18T02:56:06.150Z,98.13
2018-12-18T02:57:06.138Z,98.24
2018-12-18T02:58:06.119Z,97.67
2018-12-18T02:59:06.105Z,98.24
2018-12-18T03:00:06.093Z,97.88
2018-12-18T03:01:06.091Z,98.30
2018-12-18T03:02:06.087Z,97.88
2018-12-18T03:03:06.066Z,98.30
2018-12-18T03:04:06.045Z,97.99
2018-12-18T03:05:06.037Z,97.36
2018-12-18T03:06:06.024Z,97.26
2018-12-18T03:07:06.013Z,97.26
2018-12-18T03:08:06.019Z,97.36
2018-12-18T03:09:06.001Z,97.36
2018-12-18T03:10:05.982Z,97.36
2018-12-18T03:11:05.980Z,97.36
2018-12-18T03:12:05.966Z,97.26
2018-12-18T03:13:05.945Z,97.36
2018-12-18T03:14:05.957Z,97.67
2018-12-18T03:15:05.937Z,97.47
2018-12-18T03:16:05.918Z,97.36
2018-12-18T03:17:05.901Z,96.95
2018-12-18T03:18:05.889Z,97.16
2018-12-18T03:19:05.880Z,97.16
2018-12-18T03:20:05.889Z,97.36
2018-12-18T03:21:05.866Z,97.26
2018-12-18T03:22:05.854Z,97.52
2018-12-18T03:23:05.838Z,97.26
2018-12-18T03:24:05.820Z,97.16
2018-12-18T03:25:05.813Z,97.10
2018-12-18T03:26:05.821Z,97.10
2018-12-18T03:27:05.819Z,97.57
2018-12-18T03:28:05.781Z,97.31
2018-12-18T03:29:05.772Z,97.26
2018-12-18T03:30:05.764Z,96.95
2018-12-18T03:31:05.746Z,97.06
2018-12-18T03:32:05.747Z,97.06
2018-12-18T03:33:05.733Z,96.85
2018-12-18T03:34:05.769Z,96.64
2018-12-18T03:35:05.709Z,97.26
2018-12-18T03:36:05.695Z,96.64
2018-12-18T03:37:05.682Z,96.64
2018-12-18T03:38:05.702Z,96.89
2018-12-18T03:39:05.657Z,96.75
2018-12-18T03:40:05.642Z,96.85
2018-12-18T03:41:05.645Z,96.64
2018-12-18T03:42:05.621Z,96.64
2018-12-18T03:43:05.613Z,96.44
2018-12-18T03:44:05.621Z,96.44
2018-12-18T03:45:05.591Z,96.64
2018-12-18T03:46:05.578Z,96.64
2018-12-18T03:47:05.566Z,96.64
2018-12-18T03:48:05.554Z,96.33
2018-12-18T03:49:05.567Z,96.54
2018-12-18T03:50:05.530Z,95.86
2018-12-18T03:51:05.528Z,96.75
2018-12-18T03:52:05.509Z,96.85
2018-12-18T03:53:05.498Z,95.71
2018-12-18T03:54:05.485Z,96.64
2018-12-18T03:55:05.510Z,96.44
2018-12-18T03:56:05.471Z,95.71
2018-12-18T03:57:05.457Z,95.92
2018-12-18T03:58:05.441Z,96.85
2018-12-18T03:59:05.430Z,96.64
2018-12-18T04:00:05.419Z,95.71
2018-12-18T04:01:05.427Z,95.61
2018-12-18T04:02:05.410Z,95.81
2018-12-18T04:03:05.386Z,95.50
2018-12-18T04:04:05.375Z,95.81
2018-12-18T04:05:05.363Z,95.81
2018-12-18T04:06:05.359Z,95.50
2018-12-18T04:07:05.369Z,95.40
2018-12-18T04:08:05.342Z,95.50
2018-12-18T04:09:05.323Z,95.40
2018-12-18T04:10:05.310Z,95.40
2018-12-18T04:11:05.302Z,95.40
2018-12-18T04:12:05.285Z,95.61
2018-12-18T04:13:05.285Z,95.29
2018-12-18T04:14:05.269Z,95.40
2018-12-18T04:15:05.253Z,95.25
2018-12-18T04:16:05.244Z,95.09
2018-12-18T04:17:05.239Z,95.29
2018-12-18T04:18:05.234Z,95.40
2018-12-18T04:19:05.211Z,95.40
2018-12-18T04:20:05.201Z,95.50
2018-12-18T04:21:05.188Z,95.50
2018-12-18T04:22:05.179Z,95.40
2018-12-18T04:23:05.162Z,95.29
2018-12-18T04:24:05.169Z,95.71
2018-12-18T04:25:05.148Z,95.29
2018-12-18T04:26:05.200Z,94.68
2018-12-18T04:27:05.127Z,94.98
2018-12-18T04:28:05.115Z,95.09
2018-12-18T04:29:05.097Z,94.68
2018-12-18T04:30:05.112Z,95.09
2018-12-18T04:31:05.074Z,94.68
2018-12-18T04:32:05.068Z,95.40
2018-12-18T04:33:05.087Z,95.09
2018-12-18T04:34:05.062Z,95.40
2018-12-18T04:35:05.039Z,94.98
2018-12-18T04:36:05.026Z,95.09
2018-12-18T04:37:05.009Z,94.89
2018-12-18T04:38:05.006Z,94.89
2018-12-18T04:39:04.994Z,95.29
2018-12-18T04:40:04.971Z,94.98
2018-12-18T04:41:04.971Z,94.37
2018-12-18T04:42:04.950Z,95.19
2018-12-18T04:43:04.938Z,94.57
2018-12-18T04:44:04.934Z,94.82
2018-12-18T04:45:04.955Z,94.26
2018-12-18T04:46:04.911Z,94.26
2018-12-18T04:47:04.898Z,94.16
2018-12-18T04:48:04.882Z,94.57
2018-12-18T04:49:04.870Z,94.57
2018-12-18T04:50:04.859Z,94.16
2018-12-18T04:51:04.878Z,94.06
2018-12-18T04:52:04.858Z,93.74
2018-12-18T04:53:04.830Z,93.43
2018-12-18T04:54:04.814Z,94.06
2018-12-18T04:55:04.802Z,93.74
2018-12-18T04:56:04.795Z,93.64
2018-12-18T04:57:04.790Z,93.99
2018-12-18T04:58:04.783Z,93.64
2018-12-18T04:59:04.759Z,93.64
2018-12-18T05:00:04.758Z,94.20
2018-12-18T05:01:04.741Z,94.06
2018-12-18T05:02:04.729Z,93.95
2018-12-18T05:03:04.739Z,93.43
2018-12-18T05:04:04.718Z,93.23
2018-12-18T05:05:04.691Z,93.58
2018-12-18T05:06:04.683Z,93.54
2018-12-18T05:07:04.671Z,93.33
2018-12-18T05:08:04.660Z,93.68
2018-12-18T05:09:04.662Z,93.85
2018-12-18T05:10:04.651Z,93.23
2018-12-18T05:11:04.626Z,93.12
2018-12-18T05:12:04.615Z,92.81
2018-12-18T05:13:04.603Z,93.12
2018-12-18T05:14:04.593Z,93.43
2018-12-18T05:15:06.271Z,93.12
2018-12-18T05:16:04.577Z,93.06
2018-12-18T05:17:04.559Z,93.27
2018-12-18T05:18:04.546Z,93.37
2018-12-18T05:19:04.535Z,93.16
2018-12-18T05:20:04.522Z,94.20
2018-12-18T05:21:04.539Z,93.68
2018-12-18T05:22:04.507Z,93.27
2018-12-18T05:23:04.495Z,93.06
2018-12-18T05:24:04.479Z,93.06
2018-12-18T05:25:04.468Z,92.96
2018-12-18T05:26:04.475Z,92.24
2018-12-18T05:27:04.456Z,92.55
2018-12-18T05:28:04.439Z,92.76
2018-12-18T05:29:04.424Z,92.65
2018-12-18T05:30:04.411Z,92.76
2018-12-18T05:31:04.403Z,92.34
2018-12-18T05:32:04.403Z,92.85
2018-12-18T05:33:04.387Z,92.76
2018-12-18T05:34:04.368Z,92.76
2018-12-18T05:35:04.386Z,92.55
2018-12-18T05:36:04.353Z,93.37
2018-12-18T05:37:04.335Z,92.96
2018-12-18T05:38:04.323Z,92.44
2018-12-18T05:39:04.319Z,92.55
2018-12-18T05:40:04.369Z,93.27
2018-12-18T05:41:04.303Z,92.44
2018-12-18T05:42:04.304Z,92.65
2018-12-18T05:43:04.267Z,92.55
2018-12-18T05:44:04.257Z,92.96
2018-12-18T05:45:04.267Z,92.44
2018-12-18T05:46:04.235Z,92.65
2018-12-18T05:47:04.223Z,92.76
2018-12-18T05:48:04.228Z,92.55
2018-12-18T05:49:04.223Z,93.27
2018-12-18T05:50:04.191Z,92.85
2018-12-18T05:51:04.187Z,92.65
2018-12-18T05:52:04.167Z,92.76
2018-12-18T05:53:04.156Z,93.16
2018-12-18T05:54:04.144Z,93.06
2018-12-18T05:55:04.147Z,92.65
2018-12-18T05:56:04.123Z,92.65
2018-12-18T05:57:04.123Z,92.85
2018-12-18T05:58:04.104Z,92.76
2018-12-18T05:59:04.088Z,93.16
2018-12-18T06:00:04.075Z,92.90
2018-12-18T06:01:04.076Z,92.76
2018-12-18T06:02:04.055Z,93.06
2018-12-18T06:03:04.057Z,92.96
2018-12-18T06:04:04.032Z,93.37
2018-12-18T06:05:04.019Z,92.76
2018-12-18T06:06:04.866Z,92.76
2018-12-18T06:07:04.003Z,93.27
2018-12-18T06:08:03.987Z,93.27
2018-12-18T06:09:03.983Z,92.85
2018-12-18T06:10:03.964Z,93.27
2018-12-18T06:11:03.955Z,94.41
2018-12-18T06:12:03.963Z,93.62
2018-12-18T06:13:03.931Z,94.35
2018-12-18T06:14:03.919Z,93.21
2018-12-18T06:15:03.915Z,94.10
2018-12-18T06:16:03.975Z,94.76
2018-12-18T06:17:03.903Z,93.93
2018-12-18T06:18:03.875Z,94.66
2018-12-18T06:19:03.865Z,94.35
2018-12-18T06:20:03.855Z,94.35
2018-12-18T06:21:03.847Z,93.93
2018-12-18T06:22:03.831Z,93.93
2018-12-18T06:23:03.844Z,93.62
2018-12-18T06:24:03.806Z,93.62
2018-12-18T06:25:03.795Z,94.76
2018-12-18T06:26:03.791Z,94.24
2018-12-18T06:27:03.782Z,94.45
2018-12-18T06:28:03.762Z,94.56
2018-12-18T06:29:03.763Z,94.24
2018-12-18T06:30:03.761Z,94.14
2018-12-18T06:31:03.734Z,94.35
2018-12-18T06:32:03.718Z,94.45
2018-12-18T06:33:03.711Z,93.93
2018-12-18T06:34:03.710Z,94.56
2018-12-18T06:35:10.025Z,94.97
2018-12-18T06:36:04.683Z,94.35
2018-12-18T06:37:03.666Z,94.76
2018-12-18T06:38:03.651Z,95.18
2018-12-18T06:39:03.642Z,94.56
2018-12-18T06:40:03.637Z,94.35
2018-12-18T06:41:03.636Z,93.93
2018-12-18T06:42:03.607Z,94.24
2018-12-18T06:43:03.597Z,94.04
2018-12-18T06:44:03.582Z,94.39
2018-12-18T06:45:03.570Z,94.14
2018-12-18T06:46:03.577Z,93.73
2018-12-18T06:47:03.563Z,94.35
2018-12-18T06:48:03.538Z,93.93
2018-12-18T06:49:03.528Z,94.14
2018-12-18T06:50:03.518Z,94.04
2018-12-18T06:51:03.508Z,93.87
2018-12-18T06:52:03.514Z,94.45
2018-12-18T06:53:03.483Z,94.08
2018-12-18T06:54:03.470Z,94.14
2018-12-18T06:55:03.465Z,94.39
2018-12-18T06:56:03.450Z,94.76
2018-12-18T06:57:03.438Z,93.73
2018-12-18T06:58:03.450Z,93.62
2018-12-18T06:59:03.422Z,93.31
2018-12-18T07:00:03.408Z,93.21
2018-12-18T07:01:03.394Z,93.73
2018-12-18T07:02:03.382Z,93.93
2018-12-18T07:03:03.370Z,93.52
2018-12-18T07:04:03.378Z,93.73
2018-12-18T07:05:03.351Z,93.41
2018-12-18T07:06:03.345Z,93.83
2018-12-18T07:07:03.327Z,93.73
2018-12-18T07:08:03.326Z,93.62
2018-12-18T07:09:03.327Z,93.87
2018-12-18T07:10:03.307Z,94.29
2018-12-18T07:11:03.282Z,94.39
2018-12-18T07:12:03.278Z,93.77
2018-12-18T07:13:03.259Z,94.39
2018-12-18T07:14:03.271Z,93.77
2018-12-18T07:15:03.239Z,94.29
2018-12-18T07:16:03.235Z,93.73
2018-12-18T07:17:03.218Z,93.87
2018-12-18T07:18:03.204Z,93.77
2018-12-18T07:19:03.195Z,93.41
2018-12-18T07:20:03.203Z,93.77
2018-12-18T07:21:03.170Z,93.77
2018-12-18T07:22:03.159Z,94.29
2018-12-18T07:23:03.162Z,93.66
2018-12-18T07:24:03.137Z,94.24
2018-12-18T07:25:03.127Z,93.52
2018-12-18T07:26:03.142Z,93.77
2018-12-18T07:27:03.103Z,93.93
2018-12-18T07:28:03.103Z,93.77
2018-12-18T07:29:03.095Z,93.77
2018-12-18T07:30:03.075Z,93.87
2018-12-18T07:31:03.060Z,93.25
2018-12-18T07:32:03.063Z,93.77
2018-12-18T07:33:03.036Z,93.46
2018-12-18T07:34:03.040Z,93.77
2018-12-18T07:35:03.031Z,93.56
2018-12-18T07:36:03.003Z,93.66
2018-12-18T07:37:03.007Z,93.98
2018-12-18T07:38:02.978Z,94.08
2018-12-18T07:39:02.973Z,93.77
2018-12-18T07:40:02.963Z,93.77
2018-12-18T07:41:02.951Z,94.08
2018-12-18T07:42:02.935Z,93.83
2018-12-18T07:43:02.947Z,93.52
2018-12-18T07:44:02.910Z,94.35
2018-12-18T07:45:02.912Z,93.77
2018-12-18T07:46:02.892Z,93.35
2018-12-18T07:47:02.887Z,94.29
2018-12-18T07:48:02.868Z,93.77
2018-12-18T07:49:02.883Z,93.98
2018-12-18T07:50:02.851Z,93.77
2018-12-18T07:51:02.838Z,93.52
2018-12-18T07:52:02.825Z,93.52
2018-12-18T07:53:02.823Z,93.25
2018-12-18T07:54:02.808Z,93.56
2018-12-18T07:55:02.813Z,94.29
2018-12-18T07:56:02.779Z,94.24
2018-12-18T07:57:02.771Z,93.77
2018-12-18T07:58:02.760Z,93.87
2018-12-18T07:59:02.758Z,94.29
2018-12-18T08:00:02.736Z,93.77
2018-12-18T08:01:02.739Z,93.77
2018-12-18T08:02:02.715Z,93.77
2018-12-18T08:03:02.703Z,94.24
2018-12-18T08:04:02.691Z,94.08
2018-12-18T08:05:02.695Z,94.29
2018-12-18T08:06:02.667Z,94.18
2018-12-18T08:07:02.669Z,93.35
2018-12-18T08:08:02.651Z,93.77
2018-12-18T08:09:02.635Z,93.66
2018-12-18T08:10:02.622Z,93.66
2018-12-18T08:11:02.627Z,94.08
2018-12-18T08:12:02.614Z,94.18
2018-12-18T08:13:02.591Z,93.66
2018-12-18T08:14:02.579Z,93.98
2018-12-18T08:15:02.575Z,93.35
2018-12-18T08:16:02.555Z,93.77
2018-12-18T08:17:02.559Z,93.41
2018-12-18T08:18:02.548Z,94.18
2018-12-18T08:19:02.528Z,94.18
2018-12-18T08:20:02.517Z,93.87
2018-12-18T08:21:02.507Z,93.77
2018-12-18T08:22:02.487Z,94.39
2018-12-18T08:23:02.490Z,94.18
2018-12-18T08:24:02.483Z,93.66
2018-12-18T08:25:02.458Z,94.60
2018-12-18T08:26:02.443Z,93.35
2018-12-18T08:27:02.432Z,94.81
2018-12-18T08:28:02.419Z,94.08
2018-12-18T08:29:02.424Z,94.39
2018-12-18T08:30:02.411Z,94.18
2018-12-18T08:31:02.386Z,93.87
2018-12-18T08:32:02.375Z,94.08
2018-12-18T08:33:02.366Z,94.18
2018-12-18T08:34:02.355Z,93.98
2018-12-18T08:35:02.372Z,93.77
2018-12-18T08:36:02.334Z,93.46
2018-12-18T08:37:02.319Z,94.23
2018-12-18T08:38:02.323Z,94.95
2018-12-18T08:39:02.298Z,93.98
2018-12-18T08:40:02.287Z,93.98
2018-12-18T08:41:02.300Z,93.98
2018-12-18T08:42:02.262Z,93.77
2018-12-18T08:43:02.255Z,93.56
2018-12-18T08:44:02.246Z,93.56
2018-12-18T08:45:02.231Z,93.98
2018-12-18T08:46:02.234Z,93.66
2018-12-18T08:47:02.219Z,93.87
2018-12-18T08:48:02.198Z,93.66
2018-12-18T08:49:02.191Z,94.39
2018-12-18T08:50:02.178Z,93.98
2018-12-18T08:51:02.166Z,93.87
2018-12-18T08:52:02.170Z,94.49
2018-12-18T08:53:02.146Z,94.08
2018-12-18T08:54:02.138Z,93.77
2018-12-18T08:55:02.121Z,94.29
2018-12-18T08:56:02.110Z,93.56
2018-12-18T08:57:02.122Z,93.56
2018-12-18T08:58:02.090Z,94.39
2018-12-18T08:59:02.085Z,93.52
2018-12-18T09:00:02.065Z,94.29
2018-12-18T09:01:02.054Z,94.49
2018-12-18T09:02:02.041Z,94.29
2018-12-18T09:03:02.054Z,93.41
2018-12-18T09:04:02.018Z,93.46
2018-12-18T09:05:02.018Z,93.31
2018-12-18T09:06:01.995Z,92.90
2018-12-18T09:07:01.985Z,92.59
2018-12-18T09:08:01.974Z,92.90
2018-12-18T09:09:01.979Z,92.38
2018-12-18T09:10:01.952Z,92.80
2018-12-18T09:11:01.946Z,92.49
2018-12-18T09:12:01.932Z,92.80
2018-12-18T09:13:01.918Z,93.27
2018-12-18T09:14:01.921Z,92.96
2018-12-18T09:15:01.893Z,92.44
2018-12-18T09:16:01.885Z,92.55
2018-12-18T09:17:01.884Z,92.50
2018-12-18T09:18:01.861Z,92.71
2018-12-18T09:19:01.853Z,91.47
2018-12-18T09:20:01.863Z,91.93
2018-12-18T09:21:01.826Z,91.78
2018-12-18T09:22:01.817Z,91.67
2018-12-18T09:23:01.817Z,92.61
2018-12-18T09:24:01.793Z,92.81
2018-12-18T09:25:01.784Z,92.57
2018-12-18T09:26:01.785Z,92.67
2018-12-18T09:27:01.757Z,91.94
2018-12-18T09:28:01.753Z,91.32
2018-12-18T09:29:01.741Z,91.28
2018-12-18T09:30:01.727Z,90.25
2018-12-18T09:31:01.720Z,89.62
2018-12-18T09:32:01.714Z,89.07
2018-12-18T09:33:01.693Z,88.76
2018-12-18T09:34:01.681Z,88.86
2018-12-18T09:35:01.675Z,88.65
2018-12-18T09:36:01.657Z,88.24
2018-12-18T09:37:01.666Z,87.52
2018-12-18T09:38:01.633Z,87.41
2018-12-18T09:39:01.638Z,87.83
2018-12-18T09:40:01.620Z,87.73
2018-12-18T09:41:01.605Z,87.93
2018-12-18T09:42:01.591Z,88.45
2018-12-18T09:43:01.604Z,88.55
2018-12-18T09:44:01.569Z,88.86
2018-12-18T09:45:01.557Z,89.89
2018-12-18T09:46:01.549Z,88.34
2018-12-18T09:47:01.553Z,88.14
2018-12-18T09:48:01.533Z,88.61
2018-12-18T09:49:01.532Z,88.34
2018-12-18T09:50:01.502Z,88.92
2018-12-18T09:51:01.489Z,88.71
2018-12-18T09:52:01.481Z,88.51
2018-12-18T09:53:01.465Z,87.23
2018-12-18T09:54:01.461Z,86.20
2018-12-18T09:55:01.461Z,86.61
2018-12-18T09:56:01.433Z,87.02
2018-12-18T09:57:01.421Z,86.71
2018-12-18T09:58:01.413Z,86.10
2018-12-18T09:59:01.396Z,85.89
2018-12-18T10:00:01.409Z,85.99
2018-12-18T10:01:01.389Z,86.41
2018-12-18T10:02:01.369Z,85.47
2018-12-18T10:03:01.352Z,85.64
2018-12-18T10:04:01.345Z,85.33
2018-12-18T10:05:01.333Z,85.44
2018-12-18T10:06:01.332Z,85.78
2018-12-18T10:07:01.329Z,86.36
2018-12-18T10:08:01.297Z,85.23
2018-12-18T10:09:01.285Z,85.23
2018-12-18T10:10:01.272Z,85.64
2018-12-18T10:11:01.265Z,85.85
2018-12-18T10:12:01.269Z,86.26
2018-12-18T10:13:01.241Z,85.54
2018-12-18T10:14:01.229Z,85.02
2018-12-18T10:15:01.219Z,85.64
2018-12-18T10:16:01.205Z,84.67
2018-12-18T10:17:01.197Z,85.19
2018-12-18T10:18:01.205Z,85.30
2018-12-18T10:19:01.177Z,85.81
2018-12-18T10:20:01.169Z,85.71
2018-12-18T10:21:01.149Z,85.19
2018-12-18T10:22:01.141Z,85.09
2018-12-18T10:23:01.128Z,83.75
2018-12-18T10:24:01.144Z,83.95
2018-12-18T10:25:01.104Z,83.33
2018-12-18T10:26:01.096Z,83.95
2018-12-18T10:27:01.094Z,84.67
2018-12-18T10:28:01.093Z,84.67
2018-12-18T10:29:01.064Z,85.91
2018-12-18T10:30:01.069Z,85.25
2018-12-18T10:31:01.057Z,85.05
2018-12-18T10:32:01.033Z,84.39
2018-12-18T10:33:01.019Z,84.49
2018-12-18T10:34:01.015Z,82.84
2018-12-18T10:35:01.003Z,83.09
2018-12-18T10:36:03.127Z,82.43
2018-12-18T10:37:00.972Z,82.84
2018-12-18T10:38:00.961Z,82.19
2018-12-18T10:39:00.949Z,82.12
2018-12-18T10:40:00.959Z,82.70
2018-12-18T10:41:00.924Z,82.91
2018-12-18T10:42:00.939Z,83.94
2018-12-18T10:43:00.904Z,83.59
2018-12-18T10:44:00.895Z,82.40
2018-12-18T10:45:00.884Z,84.11
2018-12-18T10:46:00.872Z,82.83
2018-12-18T10:47:00.861Z,80.98
2018-12-18T10:48:00.868Z,79.81
2018-12-18T10:49:00.840Z,80.80
2018-12-18T10:50:00.824Z,79.81
2018-12-18T10:51:00.812Z,79.77
2018-12-18T10:52:00.812Z,78.75
2018-12-18T10:53:00.801Z,78.44
2018-12-18T10:54:00.795Z,78.23
2018-12-18T10:55:00.768Z,78.96
2018-12-18T10:56:00.755Z,77.41
2018-12-18T10:57:00.749Z,78.13
2018-12-18T10:58:00.733Z,79.05
2018-12-18T10:59:00.737Z,79.57
2018-12-18T11:00:00.719Z,77.82
2018-12-18T11:01:00.709Z,78.03
2018-12-18T11:02:00.689Z,77.92
2018-12-18T11:03:00.676Z,78.85
2018-12-18T11:04:00.678Z,78.30
2018-12-18T11:05:00.669Z,78.40
2018-12-18T11:06:00.658Z,78.40
2018-12-18T11:07:00.640Z,77.37
2018-12-18T11:08:00.624Z,78.61
2018-12-18T11:09:00.621Z,77.78
2018-12-18T11:10:00.613Z,76.97
2018-12-18T11:11:00.588Z,76.45
2018-12-18T11:12:00.584Z,77.68
2018-12-18T11:13:00.568Z,76.86
2018-12-18T11:14:00.553Z,77.48
2018-12-18T11:15:00.541Z,77.17
2018-12-18T11:16:00.549Z,76.55
2018-12-18T11:17:00.525Z,77.06
2018-12-18T11:18:00.520Z,76.04
2018-12-18T11:19:00.496Z,75.52
2018-12-18T11:20:00.485Z,76.35
2018-12-18T11:21:00.489Z,75.93
2018-12-18T11:22:00.476Z,76.65
2018-12-18T11:23:00.453Z,77.37
2018-12-18T11:24:00.452Z,75.59
2018-12-18T11:25:00.434Z,75.90
2018-12-18T11:26:00.428Z,76.51
2018-12-18T11:27:00.408Z,76.51
2018-12-18T11:28:00.404Z,76.42
2018-12-18T11:29:00.384Z,75.70
2018-12-18T11:30:00.379Z,74.67
2018-12-18T11:31:00.360Z,75.90
2018-12-18T11:32:00.356Z,75.38
2018-12-18T11:33:00.360Z,75.59
2018-12-18T11:34:00.331Z,77.23
2018-12-18T11:35:00.318Z,75.70
2018-12-18T11:36:00.305Z,75.38
2018-12-18T11:37:00.296Z,75.49
2018-12-18T11:38:00.289Z,76.42
2018-12-18T11:39:00.292Z,74.40
2018-12-18T11:40:00.260Z,76.00
2018-12-18T11:41:00.248Z,74.98
2018-12-18T11:42:00.236Z,75.35
2018-12-18T11:43:00.224Z,75.56
2018-12-18T11:44:00.224Z,73.68
2018-12-18T11:45:00.213Z,73.74
2018-12-18T11:46:00.202Z,72.96
2018-12-18T11:47:00.184Z,74.05
2018-12-18T11:48:00.176Z,74.98
2018-12-18T11:49:00.172Z,73.74
2018-12-18T11:50:00.155Z,72.61
2018-12-18T11:51:00.136Z,74.05
2018-12-18T11:52:00.126Z,73.19
2018-12-18T11:53:00.112Z,71.25
2018-12-18T11:54:00.110Z,70.22
2018-12-18T11:55:00.106Z,70.84
2018-12-18T11:56:00.080Z,72.07
2018-12-18T11:57:00.068Z,72.07
2018-12-18T11:58:00.060Z,71.66
2018-12-18T11:59:00.044Z,71.25
2018-12-18T12:00:00.060Z,71.97
2018-12-18T12:01:00.033Z,72.07
2018-12-18T12:02:00.016Z,72.17
2018-12-18T12:03:00.005Z,71.28
2018-12-18T12:03:59.992Z,71.18
2018-12-18T12:04:59.985Z,71.39
2018-12-18T12:05:59.992Z,71.08
2018-12-18T12:06:59.958Z,71.72
2018-12-18T12:07:59.947Z,72.34
2018-12-18T12:08:59.934Z,71.93
2018-12-18T12:09:59.926Z,71.97
2018-12-18T12:10:59.911Z,71.35
2018-12-18T12:11:59.920Z,72.38
2018-12-18T12:12:59.896Z,72.78
2018-12-18T12:13:59.878Z,72.06
2018-12-18T12:14:59.864Z,73.40
2018-12-18T12:15:59.856Z,72.31
2018-12-18T12:16:59.844Z,72.61
2018-12-18T12:17:59.852Z,73.68
2018-12-18T12:18:59.824Z,72.44
2018-12-18T12:19:59.812Z,73.64
2018-12-18T12:20:59.800Z,73.88
2018-12-18T12:21:59.792Z,73.57
2018-12-18T12:22:59.776Z,73.47
2018-12-18T12:23:59.793Z,74.19
2018-12-18T12:24:59.760Z,75.12
2018-12-18T12:25:59.747Z,75.73
2018-12-18T12:26:59.736Z,75.52
2018-12-18T12:27:59.720Z,75.97
2018-12-18T12:28:59.709Z,75.73
2018-12-18T12:29:59.717Z,75.76
2018-12-18T12:30:59.700Z,75.52
2018-12-18T12:31:59.676Z,75.56
2018-12-18T12:32:59.667Z,76.07
2018-12-18T12:33:59.656Z,75.67
2018-12-18T12:34:59.641Z,75.80
2018-12-18T12:35:59.644Z,76.52
2018-12-18T12:36:59.632Z,75.76
2018-12-18T12:37:59.612Z,76.01
2018-12-18T12:38:59.597Z,76.62
2018-12-18T12:39:59.587Z,76.04
2018-12-18T12:40:59.575Z,76.56
2018-12-18T12:41:59.576Z,76.86
2018-12-18T12:42:59.562Z,76.97
2018-12-18T12:43:59.539Z,76.45
2018-12-18T12:44:59.527Z,77.07
2018-12-18T12:45:59.520Z,76.86
2018-12-18T12:46:59.529Z,78.00
2018-12-18T12:47:59.498Z,77.28
2018-12-18T12:48:59.493Z,76.76
2018-12-18T12:49:59.473Z,76.25
2018-12-18T12:50:59.466Z,77.69
2018-12-18T12:51:59.447Z,77.42